createdAt,value
2017-01-20T00:00:23.187Z,50.22
2017-01-20T00:01:32.174Z,50.41
2017-01-20T00:02:41.171Z,50.58
2017-01-20T00:03:50.180Z,50.2
2017-01-20T00:04:59.169Z,50.77
2017-01-20T00:06:08.160Z,50.38
2017-01-20T00:07:17.136Z,50
2017-01-20T00:08:26.124Z,50.48
2017-01-20T00:09:35.110Z,49.71
2017-01-20T00:10:44.111Z,49.52
2017-01-20T00:11:53.080Z,49.84
2017-01-20T00:13:02.084Z,49.62
2017-01-20T00:14:11.061Z,50.1
2017-01-20T00:15:20.061Z,49.52
2017-01-20T00:16:29.050Z,49.71
2017-01-20T00:17:38.039Z,49.33
2017-01-20T00:18:47.013Z,49.62
2017-01-20T00:19:55.994Z,49.81
2017-01-20T00:21:05.006Z,49.33
2017-01-20T00:22:14.005Z,49.33
2017-01-20T00:23:22.999Z,49.14
2017-01-20T00:24:31.994Z,48.75
2017-01-20T00:25:40.991Z,48.95
2017-01-20T00:26:49.976Z,49.33
2017-01-20T00:27:58.962Z,49.33
2017-01-20T00:29:07.941Z,49.14
2017-01-20T00:30:16.925Z,48.57
2017-01-20T00:31:25.918Z,48.95
2017-01-20T00:32:34.897Z,49.24
2017-01-20T00:33:43.912Z,49.43
2017-01-20T00:34:52.902Z,49.5
2017-01-20T00:36:01.884Z,49.5
2017-01-20T00:37:10.864Z,49.11
2017-01-20T00:38:19.844Z,49.4
2017-01-20T00:39:28.820Z,48.93
2017-01-20T00:40:37.808Z,49.21
2017-01-20T00:41:46.804Z,49.31
2017-01-20T00:42:55.791Z,49.5
2017-01-20T00:44:04.793Z,49.11
2017-01-20T00:45:13.793Z,49.31
2017-01-20T00:46:22.803Z,49.31
2017-01-20T00:47:31.795Z,49.11
2017-01-20T00:48:40.796Z,49.31
2017-01-20T00:49:49.774Z,49.5
2017-01-20T00:50:58.771Z,49.21
2017-01-20T00:52:07.748Z,49.31
2017-01-20T00:53:16.749Z,49.48
2017-01-20T00:54:25.754Z,49.38
2017-01-20T00:55:34.741Z,49.57
2017-01-20T00:56:43.717Z,49.76
2017-01-20T00:57:52.704Z,49.48
2017-01-20T00:59:01.693Z,49.86
2017-01-20T01:00:10.680Z,49.48
2017-01-20T01:01:19.671Z,49.76
2017-01-20T01:02:28.661Z,49.66
2017-01-20T01:03:37.642Z,49.76
2017-01-20T01:04:46.630Z,49.76
2017-01-20T01:05:55.624Z,49.57
2017-01-20T01:07:04.611Z,49.29
2017-01-20T01:08:13.588Z,49.29
2017-01-20T01:09:22.578Z,49.09
2017-01-20T01:10:31.571Z,49.29
2017-01-20T01:11:40.559Z,49.86
2017-01-20T01:12:49.567Z,49.86
2017-01-20T01:13:58.547Z,49.86
2017-01-20T01:15:07.534Z,49.86
2017-01-20T01:16:16.528Z,49.76
2017-01-20T01:17:25.521Z,49.66
2017-01-20T01:18:34.503Z,49.57
2017-01-20T01:19:43.479Z,49.86
2017-01-20T01:20:52.486Z,49.84
2017-01-20T01:22:01.477Z,50.02
2017-01-20T01:23:10.486Z,50.02
2017-01-20T01:24:19.674Z,49.93
2017-01-20T01:25:28.656Z,49.45
2017-01-20T01:26:37.653Z,49.93
2017-01-20T01:27:46.635Z,50.02
2017-01-20T01:28:55.610Z,50.12
2017-01-20T01:30:04.593Z,50.31
2017-01-20T01:31:13.585Z,49.93
2017-01-20T01:32:22.569Z,50.02
2017-01-20T01:33:31.542Z,50.21
2017-01-20T01:34:40.537Z,50.12
2017-01-20T01:35:49.519Z,50.12
2017-01-20T01:36:58.509Z,50.02
2017-01-20T01:38:07.493Z,50.31
2017-01-20T01:39:16.492Z,50.02
2017-01-20T01:40:25.475Z,50.02
2017-01-20T01:41:34.466Z,49.74
2017-01-20T01:42:43.462Z,49.84
2017-01-20T01:43:52.447Z,50.5
2017-01-20T01:45:01.443Z,50.5
2017-01-20T01:46:10.438Z,50.5
2017-01-20T01:47:19.421Z,50.21
2017-01-20T01:48:28.411Z,50.21
2017-01-20T01:49:37.390Z,50.02
2017-01-20T01:50:46.380Z,50.21
2017-01-20T01:51:55.358Z,50.38
2017-01-20T01:53:04.365Z,50.41
2017-01-20T01:54:13.361Z,50.57
2017-01-20T01:55:22.349Z,50.38
2017-01-20T01:56:31.327Z,50.86
2017-01-20T01:57:40.332Z,50.48
2017-01-20T01:58:49.313Z,50.86
2017-01-20T01:59:58.288Z,50.48
2017-01-20T02:01:07.283Z,50.7
2017-01-20T02:02:16.281Z,49.84
2017-01-20T02:03:25.259Z,50.02
2017-01-20T02:04:34.247Z,50.21
2017-01-20T02:05:43.228Z,50.48
2017-01-20T02:06:52.206Z,50.09
2017-01-20T02:08:01.195Z,50.09
2017-01-20T02:09:10.185Z,50
2017-01-20T02:10:19.172Z,49.9
2017-01-20T02:11:28.165Z,50.67
2017-01-20T02:12:37.137Z,50.29
2017-01-20T02:13:46.123Z,50.48
2017-01-20T02:14:55.106Z,50.48
2017-01-20T02:16:04.106Z,50.48
2017-01-20T02:17:13.081Z,50.67
2017-01-20T02:18:22.059Z,50.38
2017-01-20T02:19:31.047Z,50.48
2017-01-20T02:20:40.030Z,50.48
2017-01-20T02:21:49.030Z,50.48
2017-01-20T02:22:58.019Z,50.38
2017-01-20T02:24:06.988Z,50.57
2017-01-20T02:25:15.969Z,50.48
2017-01-20T02:26:24.952Z,50.57
2017-01-20T02:27:33.929Z,50.38
2017-01-20T02:28:42.922Z,50.38
2017-01-20T02:29:51.914Z,50.38
2017-01-20T02:31:00.897Z,50.57
2017-01-20T02:32:09.919Z,50.48
2017-01-20T02:33:18.911Z,50.29
2017-01-20T02:34:27.890Z,50.48
2017-01-20T02:35:36.934Z,50.48
2017-01-20T02:36:45.918Z,50.48
2017-01-20T02:37:54.894Z,50.26
2017-01-20T02:39:03.884Z,50.84
2017-01-20T02:40:12.865Z,50.76
2017-01-20T02:41:21.891Z,50.26
2017-01-20T02:42:30.899Z,50.29
2017-01-20T02:43:39.882Z,50.48
2017-01-20T02:44:48.857Z,50.38
2017-01-20T02:45:57.850Z,50.48
2017-01-20T02:47:06.847Z,50.57
2017-01-20T02:48:15.825Z,50.45
2017-01-20T02:49:24.813Z,50.45
2017-01-20T02:50:33.809Z,50.64
2017-01-20T02:51:42.803Z,51.03
2017-01-20T02:52:51.787Z,50.45
2017-01-20T02:54:00.767Z,50.45
2017-01-20T02:55:09.760Z,50.45
2017-01-20T02:56:18.741Z,50.48
2017-01-20T02:57:27.724Z,50.55
2017-01-20T02:58:36.702Z,51.03
2017-01-20T02:59:45.685Z,51.12
2017-01-20T03:00:54.670Z,51.21
2017-01-20T03:02:03.651Z,51.41
2017-01-20T03:03:12.632Z,50.93
2017-01-20T03:04:21.616Z,51.31
2017-01-20T03:05:30.638Z,51.12
2017-01-20T03:06:39.613Z,50.93
2017-01-20T03:07:48.588Z,50.84
2017-01-20T03:08:57.612Z,51.03
2017-01-20T03:10:06.591Z,50.93
2017-01-20T03:11:15.576Z,51.12
2017-01-20T03:12:24.565Z,51.41
2017-01-20T03:13:33.551Z,51.21
2017-01-20T03:14:42.540Z,51.41
2017-01-20T03:15:51.530Z,51.5
2017-01-20T03:17:00.522Z,51.41
2017-01-20T03:18:09.503Z,51.31
2017-01-20T03:19:18.486Z,51.12
2017-01-20T03:20:27.455Z,51.5
2017-01-20T03:21:36.442Z,51.38
2017-01-20T03:22:45.435Z,51.41
2017-01-20T03:23:54.439Z,51.29
2017-01-20T03:25:03.416Z,51.7
2017-01-20T03:26:12.401Z,52.08
2017-01-20T03:27:21.382Z,51.89
2017-01-20T03:28:30.372Z,51.7
2017-01-20T03:29:39.348Z,52.43
2017-01-20T03:30:48.759Z,52.05
2017-01-20T03:31:57.751Z,52.55
2017-01-20T03:33:06.751Z,51.67
2017-01-20T03:34:15.735Z,51.31
2017-01-20T03:35:24.724Z,51.98
2017-01-20T03:36:33.709Z,51.89
2017-01-20T03:37:42.719Z,51.95
2017-01-20T03:38:51.701Z,51.76
2017-01-20T03:40:00.679Z,51.86
2017-01-20T03:41:09.670Z,51.86
2017-01-20T03:42:18.654Z,51.95
2017-01-20T03:43:27.625Z,52.05
2017-01-20T03:44:36.611Z,51.76
2017-01-20T03:45:45.635Z,52.05
2017-01-20T03:46:54.651Z,51.48
2017-01-20T03:48:03.639Z,51.29
2017-01-20T03:49:12.619Z,51.29
2017-01-20T03:50:21.595Z,51.76
2017-01-20T03:51:30.576Z,52.05
2017-01-20T03:52:39.589Z,51.86
2017-01-20T03:53:48.569Z,51.76
2017-01-20T03:54:57.561Z,51.38
2017-01-20T03:56:06.538Z,51.29
2017-01-20T03:57:15.519Z,50.9
2017-01-20T03:58:24.563Z,51.09
2017-01-20T03:59:33.549Z,51.48
2017-01-20T04:00:42.542Z,51.29
2017-01-20T04:01:51.537Z,51.29
2017-01-20T04:03:00.518Z,51.38
2017-01-20T04:04:09.548Z,51.48
2017-01-20T04:05:18.543Z,51.38
2017-01-20T04:06:27.539Z,51.38
2017-01-20T04:07:36.521Z,51.29
2017-01-20T04:08:45.498Z,51.38
2017-01-20T04:09:54.483Z,51.38
2017-01-20T04:11:03.471Z,51.48
2017-01-20T04:12:12.468Z,51.29
2017-01-20T04:13:21.445Z,51
2017-01-20T04:14:30.453Z,51.29
2017-01-20T04:15:39.424Z,51.57
2017-01-20T04:16:48.407Z,52.34
2017-01-20T04:17:57.391Z,52.24
2017-01-20T04:19:06.385Z,52.03
2017-01-20T04:20:15.367Z,51.38
2017-01-20T04:21:24.347Z,51.38
2017-01-20T04:22:33.341Z,51.95
2017-01-20T04:23:42.348Z,52.05
2017-01-20T04:24:51.352Z,51.76
2017-01-20T04:26:00.346Z,52.34
2017-01-20T04:27:09.323Z,52.15
2017-01-20T04:28:18.306Z,52.12
2017-01-20T04:29:27.285Z,52.24
2017-01-20T04:30:36.267Z,52.05
2017-01-20T04:31:45.253Z,52.15
2017-01-20T04:32:54.239Z,52.22
2017-01-20T04:34:03.218Z,52.05
2017-01-20T04:35:12.192Z,52.22
2017-01-20T04:36:21.174Z,52.24
2017-01-20T04:37:30.165Z,52.34
2017-01-20T04:38:39.137Z,52.03
2017-01-20T04:39:48.130Z,52.22
2017-01-20T04:40:57.111Z,52.12
2017-01-20T04:42:06.100Z,52.22
2017-01-20T04:43:15.073Z,52.05
2017-01-20T04:44:24.065Z,52.03
2017-01-20T04:45:33.056Z,52.12
2017-01-20T04:46:42.040Z,52.31
2017-01-20T04:47:51.028Z,52.12
2017-01-20T04:49:00.008Z,52.22
2017-01-20T04:50:09.020Z,52.22
2017-01-20T04:51:18.033Z,52.03
2017-01-20T04:52:27.015Z,51.93
2017-01-20T04:53:36.069Z,52.31
2017-01-20T04:54:45.061Z,52.59
2017-01-20T04:55:54.048Z,52.31
2017-01-20T04:57:03.023Z,52.31
2017-01-20T04:58:12.006Z,52.22
2017-01-20T04:59:20.992Z,52.22
2017-01-20T05:00:29.964Z,52.59
2017-01-20T05:01:38.952Z,52.22
2017-01-20T05:02:47.941Z,52.12
2017-01-20T05:03:56.931Z,52.12
2017-01-20T05:05:05.921Z,52.22
2017-01-20T05:06:14.912Z,52.22
2017-01-20T05:07:23.905Z,52.5
2017-01-20T05:08:32.883Z,52.12
2017-01-20T05:09:41.883Z,52.22
2017-01-20T05:10:50.854Z,52.03
2017-01-20T05:11:59.848Z,52.12
2017-01-20T05:13:08.833Z,52.22
2017-01-20T05:14:17.822Z,52.12
2017-01-20T05:15:26.808Z,52.5
2017-01-20T05:16:35.823Z,52.4
2017-01-20T05:17:44.792Z,52.59
2017-01-20T05:18:53.775Z,52.5
2017-01-20T05:20:02.753Z,52.5
2017-01-20T05:21:11.742Z,52.5
2017-01-20T05:22:20.747Z,52.31
2017-01-20T05:23:29.729Z,52.12
2017-01-20T05:24:38.708Z,52.22
2017-01-20T05:25:47.693Z,52.12
2017-01-20T05:26:56.691Z,52.4
2017-01-20T05:28:05.882Z,52.31
2017-01-20T05:29:15.515Z,52.4
2017-01-20T05:30:24.520Z,52.03
2017-01-20T05:31:33.506Z,52.12
2017-01-20T05:32:42.511Z,52.31
2017-01-20T05:33:51.493Z,52.12
2017-01-20T05:35:00.482Z,51.93
2017-01-20T05:36:09.471Z,51.93
2017-01-20T05:37:18.462Z,52.12
2017-01-20T05:38:27.438Z,52.12
2017-01-20T05:39:36.432Z,52.4
2017-01-20T05:40:45.430Z,51.83
2017-01-20T05:41:54.412Z,52.22
2017-01-20T05:43:03.395Z,52.4
2017-01-20T05:44:12.377Z,52.22
2017-01-20T05:45:21.362Z,52.22
2017-01-20T05:46:30.342Z,52.22
2017-01-20T05:47:39.337Z,52.03
2017-01-20T05:48:48.314Z,52.12
2017-01-20T05:49:57.307Z,52.31
2017-01-20T05:51:06.304Z,52.31
2017-01-20T05:52:15.279Z,52.22
2017-01-20T05:53:24.269Z,52.03
2017-01-20T05:54:33.254Z,52.22
2017-01-20T05:55:42.238Z,51.93
2017-01-20T05:56:51.218Z,51.35
2017-01-20T05:58:00.201Z,51.83
2017-01-20T05:59:09.197Z,52.03
2017-01-20T06:00:18.175Z,52.12
2017-01-20T06:01:27.175Z,54.03
2017-01-20T06:02:36.151Z,58.16
2017-01-20T06:03:45.141Z,59.44
2017-01-20T06:04:54.193Z,61.19
2017-01-20T06:06:03.173Z,60.13
2017-01-20T06:07:12.156Z,59.27
2017-01-20T06:08:21.149Z,59.18
2017-01-20T06:09:30.168Z,62.04
2017-01-20T06:10:39.136Z,65.01
2017-01-20T06:11:48.120Z,66
2017-01-20T06:12:57.104Z,67.53
2017-01-20T06:14:06.089Z,68.2
2017-01-20T06:15:15.073Z,68.52
2017-01-20T06:16:24.060Z,67.85
2017-01-20T06:17:33.056Z,66.8
2017-01-20T06:18:42.055Z,63.83
2017-01-20T06:19:51.040Z,61.34
2017-01-20T06:21:00.009Z,59.59
2017-01-20T06:22:09.009Z,58.34
2017-01-20T06:23:17.988Z,59.97
2017-01-20T06:24:26.995Z,62.08
2017-01-20T06:25:35.976Z,62.68
2017-01-20T06:26:44.961Z,63.35
2017-01-20T06:27:53.945Z,63.16
2017-01-20T06:29:02.940Z,64.4
2017-01-20T06:30:11.925Z,64.02
2017-01-20T06:31:20.894Z,64.31
2017-01-20T06:32:29.879Z,64.4
2017-01-20T06:33:38.859Z,64.98
2017-01-20T06:34:47.848Z,64.92
2017-01-20T06:35:56.828Z,64.92
2017-01-20T06:37:05.819Z,65.58
2017-01-20T06:38:14.822Z,65.49
2017-01-20T06:39:23.812Z,65.68
2017-01-20T06:40:32.808Z,65.88
2017-01-20T06:41:41.792Z,65.88
2017-01-20T06:42:50.765Z,66.16
2017-01-20T06:43:59.755Z,66.64
2017-01-20T06:45:08.734Z,66.25
2017-01-20T06:46:17.723Z,66.19
2017-01-20T06:47:26.716Z,65.91
2017-01-20T06:48:35.706Z,66.09
2017-01-20T06:49:44.683Z,66.77
2017-01-20T06:50:53.679Z,67.63
2017-01-20T06:52:02.658Z,67.05
2017-01-20T06:53:11.653Z,66.96
2017-01-20T06:54:20.635Z,67.54
2017-01-20T06:55:29.615Z,68.21
2017-01-20T06:56:38.599Z,68.3
2017-01-20T06:57:47.592Z,68.4
2017-01-20T06:58:56.580Z,69.17
2017-01-20T07:00:05.572Z,68.62
2017-01-20T07:01:14.596Z,68.91
2017-01-20T07:02:23.580Z,67.95
2017-01-20T07:03:32.573Z,69.39
2017-01-20T07:04:41.573Z,69.01
2017-01-20T07:05:50.561Z,68.91
2017-01-20T07:06:59.555Z,69.39
2017-01-20T07:08:08.539Z,69.29
2017-01-20T07:09:17.529Z,68.72
2017-01-20T07:10:26.505Z,69.29
2017-01-20T07:11:35.488Z,69.2
2017-01-20T07:12:44.468Z,67.57
2017-01-20T07:13:53.450Z,68.33
2017-01-20T07:15:02.445Z,69.2
2017-01-20T07:16:11.434Z,69.01
2017-01-20T07:17:20.439Z,68.33
2017-01-20T07:18:29.816Z,69.29
2017-01-20T07:19:38.790Z,67.66
2017-01-20T07:20:47.779Z,67.22
2017-01-20T07:21:56.762Z,67.12
2017-01-20T07:23:05.746Z,66.71
2017-01-20T07:24:14.745Z,67.69
2017-01-20T07:25:23.721Z,67.41
2017-01-20T07:26:32.720Z,68.46
2017-01-20T07:27:41.709Z,70.38
2017-01-20T07:28:50.704Z,70.76
2017-01-20T07:29:59.712Z,68.85
2017-01-20T07:31:11.527Z,68.56
2017-01-20T07:32:20.517Z,67.22
2017-01-20T07:33:29.482Z,66.74
2017-01-20T07:34:38.510Z,66.35
2017-01-20T07:35:47.493Z,66.55
2017-01-20T07:36:56.488Z,66.83
2017-01-20T07:38:05.489Z,63.57
2017-01-20T07:39:14.465Z,60.7
2017-01-20T07:40:23.451Z,58.84
2017-01-20T07:41:32.428Z,57.6
2017-01-20T07:42:41.418Z,56.9
2017-01-20T07:43:50.403Z,56.81
2017-01-20T07:44:59.398Z,56.99
2017-01-20T07:46:08.384Z,56.99
2017-01-20T07:47:17.371Z,55.75
2017-01-20T07:48:26.363Z,54.41
2017-01-20T07:49:35.353Z,54.96
2017-01-20T07:50:44.333Z,55.24
2017-01-20T07:51:53.321Z,55.34
2017-01-20T07:53:02.302Z,55.05
2017-01-20T07:54:11.278Z,54.77
2017-01-20T07:55:20.270Z,54.67
2017-01-20T07:56:29.266Z,54.86
2017-01-20T07:57:38.252Z,54.57
2017-01-20T07:58:47.237Z,54.28
2017-01-20T07:59:56.213Z,53.91
2017-01-20T08:01:05.196Z,53.4
2017-01-20T08:02:14.190Z,53.49
2017-01-20T08:03:23.186Z,53.49
2017-01-20T08:04:32.180Z,53.69
2017-01-20T08:05:41.173Z,54.26
2017-01-20T08:06:50.167Z,54.07
2017-01-20T08:07:59.136Z,53.78
2017-01-20T08:09:08.139Z,53.97
2017-01-20T08:10:17.122Z,53.88
2017-01-20T08:11:26.109Z,53.69
2017-01-20T08:12:35.096Z,53.37
2017-01-20T08:13:44.524Z,53.69
2017-01-20T08:14:53.511Z,52.89
2017-01-20T08:16:02.495Z,52.51
2017-01-20T08:17:11.491Z,52.8
2017-01-20T08:18:20.472Z,52.8
2017-01-20T08:19:29.469Z,52.8
2017-01-20T08:20:38.481Z,53.75
2017-01-20T08:21:47.457Z,53.66
2017-01-20T08:22:56.451Z,53.56
2017-01-20T08:24:05.475Z,53.66
2017-01-20T08:25:14.461Z,53.66
2017-01-20T08:26:23.460Z,53.28
2017-01-20T08:27:32.448Z,53.75
2017-01-20T08:28:41.435Z,53.85
2017-01-20T08:29:50.434Z,52.61
2017-01-20T08:30:59.415Z,52.51
2017-01-20T08:32:08.398Z,52.89
2017-01-20T08:33:17.382Z,53.47
2017-01-20T08:34:26.405Z,52.61
2017-01-20T08:35:35.381Z,52.89
2017-01-20T08:36:44.370Z,53.37
2017-01-20T08:37:53.351Z,52.8
2017-01-20T08:39:02.328Z,52.51
2017-01-20T08:40:11.315Z,52.99
2017-01-20T08:41:20.328Z,53.47
2017-01-20T08:42:29.316Z,53.37
2017-01-20T08:43:38.299Z,53.47
2017-01-20T08:44:47.283Z,52.8
2017-01-20T08:45:56.276Z,52.61
2017-01-20T08:47:05.284Z,52.48
2017-01-20T08:48:14.269Z,52.01
2017-01-20T08:49:23.258Z,52.39
2017-01-20T08:50:32.248Z,52.1
2017-01-20T08:51:41.262Z,52.39
2017-01-20T08:52:50.249Z,52.58
2017-01-20T08:53:59.230Z,52.29
2017-01-20T08:55:08.209Z,52.01
2017-01-20T08:56:17.192Z,52.39
2017-01-20T08:57:26.178Z,52.48
2017-01-20T08:58:35.200Z,52.77
2017-01-20T08:59:44.175Z,52.39
2017-01-20T09:00:53.151Z,53.06
2017-01-20T09:02:02.143Z,52.29
2017-01-20T09:03:11.136Z,52.29
2017-01-20T09:04:20.124Z,52.39
2017-01-20T09:05:29.117Z,52.67
2017-01-20T09:06:38.092Z,52.77
2017-01-20T09:07:47.067Z,52.67
2017-01-20T09:08:56.153Z,52.77
2017-01-20T09:10:05.159Z,52.29
2017-01-20T09:11:14.135Z,52.67
2017-01-20T09:12:23.116Z,52.39
2017-01-20T09:13:32.093Z,52.29
2017-01-20T09:14:41.092Z,52.39
2017-01-20T09:15:50.078Z,52.1
2017-01-20T09:16:59.068Z,52.2
2017-01-20T09:18:08.057Z,52.29
2017-01-20T09:19:17.032Z,52.1
2017-01-20T09:20:26.026Z,52.48
2017-01-20T09:21:35.017Z,52.67
2017-01-20T09:22:44.000Z,52.29
2017-01-20T09:23:52.993Z,52.67
2017-01-20T09:25:01.977Z,52.1
2017-01-20T09:26:10.955Z,52.2
2017-01-20T09:27:19.956Z,52.2
2017-01-20T09:28:28.943Z,52.39
2017-01-20T09:29:37.939Z,52.29
2017-01-20T09:30:46.915Z,52.2
2017-01-20T09:31:55.910Z,52.67
2017-01-20T09:33:04.887Z,52.39
2017-01-20T09:34:13.882Z,51.81
2017-01-20T09:35:22.864Z,51.43
2017-01-20T09:36:31.848Z,51.62
2017-01-20T09:37:40.818Z,52.1
2017-01-20T09:38:49.795Z,51.72
2017-01-20T09:39:58.788Z,52.1
2017-01-20T09:41:07.772Z,51.53
2017-01-20T09:42:16.764Z,51.34
2017-01-20T09:43:25.744Z,51.91
2017-01-20T09:44:34.734Z,52.2
2017-01-20T09:45:43.707Z,51.62
2017-01-20T09:46:52.700Z,51.72
2017-01-20T09:48:01.678Z,51.43
2017-01-20T09:49:10.699Z,52.2
2017-01-20T09:50:19.690Z,51.91
2017-01-20T09:51:28.662Z,51.72
2017-01-20T09:52:37.709Z,51.81
2017-01-20T09:53:46.702Z,51.53
2017-01-20T09:54:55.694Z,52.1
2017-01-20T09:56:04.691Z,52.2
2017-01-20T09:57:13.674Z,52.39
2017-01-20T09:58:22.661Z,52.1
2017-01-20T09:59:31.648Z,52.29
2017-01-20T10:00:40.643Z,52.1
2017-01-20T10:01:49.628Z,51.91
2017-01-20T10:02:58.619Z,51.91
2017-01-20T10:04:07.601Z,52.48
2017-01-20T10:05:16.571Z,51.43
2017-01-20T10:06:25.559Z,52.01
2017-01-20T10:07:34.535Z,51.81
2017-01-20T10:08:43.532Z,52.2
2017-01-20T10:09:52.529Z,52.1
2017-01-20T10:11:01.522Z,52.2
2017-01-20T10:12:10.510Z,52.29
2017-01-20T10:13:19.501Z,52.1
2017-01-20T10:14:28.487Z,51.81
2017-01-20T10:15:37.473Z,51.15
2017-01-20T10:16:46.454Z,52.01
2017-01-20T10:17:55.436Z,52.1
2017-01-20T10:19:04.412Z,52.01
2017-01-20T10:20:13.417Z,51.62
2017-01-20T10:21:22.409Z,51.53
2017-01-20T10:22:31.388Z,51.53
2017-01-20T10:23:40.584Z,51.43
2017-01-20T10:24:49.580Z,51.34
2017-01-20T10:25:58.973Z,51.72
2017-01-20T10:27:07.959Z,51.72
2017-01-20T10:28:16.943Z,51.43
2017-01-20T10:29:25.934Z,51.43
2017-01-20T10:30:34.905Z,51.91
2017-01-20T10:31:43.893Z,52.01
2017-01-20T10:32:52.871Z,51.81
2017-01-20T10:34:01.864Z,51.43
2017-01-20T10:35:10.863Z,51.72
2017-01-20T10:36:19.835Z,51.53
2017-01-20T10:37:28.829Z,51.05
2017-01-20T10:38:37.813Z,51.15
2017-01-20T10:39:46.796Z,51.43
2017-01-20T10:40:55.786Z,51.34
2017-01-20T10:42:04.786Z,51.43
2017-01-20T10:43:13.755Z,51.43
2017-01-20T10:44:22.744Z,51.34
2017-01-20T10:45:31.741Z,51.43
2017-01-20T10:46:40.749Z,51.24
2017-01-20T10:47:49.737Z,51.34
2017-01-20T10:48:58.715Z,51.24
2017-01-20T10:50:07.711Z,51.62
2017-01-20T10:51:16.695Z,52.2
2017-01-20T10:52:25.710Z,54.68
2017-01-20T10:53:34.690Z,55.41
2017-01-20T10:54:43.676Z,54.48
2017-01-20T10:55:52.661Z,53.93
2017-01-20T10:57:01.645Z,54.5
2017-01-20T10:58:10.641Z,54.63
2017-01-20T10:59:19.637Z,54.17
2017-01-20T11:00:28.624Z,54.17
2017-01-20T11:01:37.610Z,53.91
2017-01-20T11:02:46.596Z,53.91
2017-01-20T11:03:55.587Z,54.01
2017-01-20T11:05:04.944Z,54.13
2017-01-20T11:06:13.938Z,54.35
2017-01-20T11:07:22.925Z,54.83
2017-01-20T11:08:31.909Z,54.83
2017-01-20T11:09:40.908Z,55.34
2017-01-20T11:10:49.901Z,55.91
2017-01-20T11:11:58.935Z,56.21
2017-01-20T11:13:08.066Z,56.23
2017-01-20T11:14:17.052Z,56.43
2017-01-20T11:15:26.046Z,55.85
2017-01-20T11:16:35.035Z,55.76
2017-01-20T11:17:44.025Z,56.26
2017-01-20T11:18:53.016Z,56.26
2017-01-20T11:20:02.003Z,56.26
2017-01-20T11:21:11.409Z,57
2017-01-20T11:22:20.393Z,57.93
2017-01-20T11:23:29.384Z,58.13
2017-01-20T11:24:38.393Z,58
2017-01-20T11:25:47.389Z,58.8
2017-01-20T11:26:56.366Z,58
2017-01-20T11:28:05.381Z,58
2017-01-20T11:29:14.371Z,58.77
2017-01-20T11:30:23.348Z,58.39
2017-01-20T11:31:32.327Z,58.87
2017-01-20T11:32:41.324Z,58.87
2017-01-20T11:33:50.294Z,58.77
2017-01-20T11:34:59.280Z,58.58
2017-01-20T11:36:08.282Z,58.87
2017-01-20T11:37:17.275Z,58.96
2017-01-20T11:38:26.245Z,59.25
2017-01-20T11:39:35.238Z,58.58
2017-01-20T11:40:44.229Z,58.58
2017-01-20T11:41:53.222Z,58.39
2017-01-20T11:43:02.209Z,59.06
2017-01-20T11:44:11.184Z,58.58
2017-01-20T11:45:20.178Z,58.77
2017-01-20T11:46:29.171Z,58.67
2017-01-20T11:47:38.164Z,58.96
2017-01-20T11:48:47.149Z,58.96
2017-01-20T11:49:56.153Z,59.54
2017-01-20T11:51:05.147Z,59.57
2017-01-20T11:52:14.131Z,59.44
2017-01-20T11:53:23.112Z,59.34
2017-01-20T11:54:32.103Z,59.44
2017-01-20T11:55:41.088Z,59.44
2017-01-20T11:56:50.069Z,59.57
2017-01-20T11:57:59.076Z,59.47
2017-01-20T11:59:08.088Z,59.44
2017-01-20T12:00:17.070Z,59.47
2017-01-20T12:01:26.058Z,59.76
2017-01-20T12:02:35.050Z,59.44
2017-01-20T12:03:44.367Z,59.28
2017-01-20T12:04:54.767Z,59.66
2017-01-20T12:06:03.764Z,59.66
2017-01-20T12:07:12.752Z,60.43
2017-01-20T12:08:21.745Z,60.72
2017-01-20T12:09:30.730Z,60.24
2017-01-20T12:10:39.716Z,60.43
2017-01-20T12:11:49.203Z,60.43
2017-01-20T12:12:58.185Z,59.95
2017-01-20T12:14:07.171Z,59.57
2017-01-20T12:15:16.163Z,59.86
2017-01-20T12:16:25.165Z,59.47
2017-01-20T12:17:34.146Z,59.76
2017-01-20T12:18:43.189Z,59.86
2017-01-20T12:19:52.196Z,60.14
2017-01-20T12:21:01.187Z,60.72
2017-01-20T12:22:10.181Z,60.24
2017-01-20T12:23:19.163Z,60.43
2017-01-20T12:24:28.148Z,60.05
2017-01-20T12:25:37.132Z,59.99
2017-01-20T12:26:46.134Z,60.34
2017-01-20T12:27:55.135Z,61.43
2017-01-20T12:29:04.128Z,61.52
2017-01-20T12:30:13.108Z,60.94
2017-01-20T12:31:22.126Z,60.37
2017-01-20T12:32:31.123Z,59.99
2017-01-20T12:33:40.114Z,60.37
2017-01-20T12:34:49.104Z,60.46
2017-01-20T12:35:58.088Z,60.56
2017-01-20T12:37:07.076Z,60.08
2017-01-20T12:38:16.078Z,60.27
2017-01-20T12:39:25.080Z,60.08
2017-01-20T12:40:34.070Z,60.46
2017-01-20T12:41:43.076Z,60.27
2017-01-20T12:42:52.078Z,60.75
2017-01-20T12:44:01.064Z,60.56
2017-01-20T12:45:10.059Z,60.37
2017-01-20T12:46:19.090Z,60.75
2017-01-20T12:47:28.075Z,60.75
2017-01-20T12:48:37.061Z,60.56
2017-01-20T12:49:46.062Z,61.23
2017-01-20T12:50:55.062Z,58.92
2017-01-20T12:52:04.050Z,57.39
2017-01-20T12:53:13.040Z,57.45
2017-01-20T12:54:22.022Z,57.55
2017-01-20T12:55:31.016Z,57.93
2017-01-20T12:56:40.012Z,57.75
2017-01-20T12:57:49.000Z,56.01
2017-01-20T12:58:57.981Z,54
2017-01-20T13:00:06.980Z,55.15
2017-01-20T13:01:16.016Z,53.9
2017-01-20T13:02:25.000Z,51.5
2017-01-20T13:03:33.992Z,50.7
2017-01-20T13:04:42.979Z,50.78
2017-01-20T13:05:51.961Z,50.94
2017-01-20T13:07:00.950Z,51.3
2017-01-20T13:08:09.933Z,51.78
2017-01-20T13:09:18.927Z,52.62
2017-01-20T13:10:27.911Z,51.85
2017-01-20T13:11:36.902Z,51.95
2017-01-20T13:12:45.903Z,52.71
2017-01-20T13:13:54.880Z,52.33
2017-01-20T13:15:03.881Z,52.33
2017-01-20T13:16:12.889Z,52.59
2017-01-20T13:17:21.877Z,52.97
2017-01-20T13:18:30.856Z,52.78
2017-01-20T13:19:39.856Z,53.26
2017-01-20T13:20:48.840Z,53.36
2017-01-20T13:21:57.825Z,53.26
2017-01-20T13:23:06.806Z,53.83
2017-01-20T13:24:15.793Z,53.86
2017-01-20T13:25:24.780Z,53.26
2017-01-20T13:26:33.926Z,54.7
2017-01-20T13:27:42.913Z,54.79
2017-01-20T13:28:51.904Z,54.32
2017-01-20T13:30:00.904Z,55.05
2017-01-20T13:31:09.916Z,55.85
2017-01-20T13:32:19.177Z,55.21
2017-01-20T13:33:28.171Z,55.04
2017-01-20T13:34:37.181Z,54.94
2017-01-20T13:35:46.165Z,55.04
2017-01-20T13:36:55.144Z,54.94
2017-01-20T13:38:04.155Z,54.49
2017-01-20T13:39:13.145Z,54.68
2017-01-20T13:40:22.138Z,54.88
2017-01-20T13:41:31.565Z,55.55
2017-01-20T13:42:40.548Z,56.02
2017-01-20T13:43:49.532Z,55.26
2017-01-20T13:44:58.516Z,55.93
2017-01-20T13:46:07.495Z,55.83
2017-01-20T13:47:16.485Z,57.08
2017-01-20T13:48:25.472Z,57.37
2017-01-20T13:49:34.451Z,58.71
2017-01-20T13:50:43.432Z,59.58
2017-01-20T13:51:52.407Z,58.04
2017-01-20T13:53:01.391Z,58.42
2017-01-20T13:54:10.383Z,58.91
2017-01-20T13:55:19.381Z,59
2017-01-20T13:56:28.363Z,58.33
2017-01-20T13:57:37.339Z,57.08
2017-01-20T13:58:46.331Z,58.52
2017-01-20T13:59:55.321Z,57.28
2017-01-20T14:01:04.321Z,58.26
2017-01-20T14:02:13.316Z,58.14
2017-01-20T14:03:22.295Z,59.29
2017-01-20T14:04:31.265Z,58.23
2017-01-20T14:05:40.263Z,56.79
2017-01-20T14:06:49.259Z,56.31
2017-01-20T14:07:58.247Z,57.18
2017-01-20T14:09:07.246Z,57.56
2017-01-20T14:10:16.236Z,58.71
2017-01-20T14:11:25.214Z,57.85
2017-01-20T14:12:34.245Z,56.86
2017-01-20T14:13:43.222Z,57.65
2017-01-20T14:14:52.227Z,58.33
2017-01-20T14:16:01.628Z,57.37
2017-01-20T14:17:10.618Z,57.46
2017-01-20T14:18:19.608Z,57.85
2017-01-20T14:19:28.598Z,57.46
2017-01-20T14:20:37.580Z,57.65
2017-01-20T14:21:46.574Z,58.62
2017-01-20T14:22:55.568Z,58.71
2017-01-20T14:24:04.545Z,58.69
2017-01-20T14:25:13.530Z,58.69
2017-01-20T14:26:22.528Z,58.87
2017-01-20T14:27:31.579Z,58.49
2017-01-20T14:28:40.601Z,58.59
2017-01-20T14:29:49.587Z,58.71
2017-01-20T14:30:58.611Z,58.52
2017-01-20T14:32:07.590Z,58.69
2017-01-20T14:33:16.575Z,58.59
2017-01-20T14:34:25.599Z,59.06
2017-01-20T14:35:34.609Z,58.97
2017-01-20T14:36:43.602Z,58.71
2017-01-20T14:37:52.578Z,58.71
2017-01-20T14:39:01.568Z,58.91
2017-01-20T14:40:10.557Z,59.09
2017-01-20T14:41:19.547Z,58.33
2017-01-20T14:42:28.533Z,58.14
2017-01-20T14:43:37.522Z,58.04
2017-01-20T14:44:46.524Z,57.75
2017-01-20T14:45:55.507Z,57.37
2017-01-20T14:47:04.486Z,56.98
2017-01-20T14:48:13.487Z,57.65
2017-01-20T14:49:22.465Z,58.33
2017-01-20T14:50:31.449Z,58.42
2017-01-20T14:51:40.446Z,58.52
2017-01-20T14:52:49.431Z,58.71